Time;durP1;ratioP1;P1;durP2;ratioP2;P2;SDS_P1;SDS_P2;PMS_P1;PMS_P2;Temp;Humidity;BMP_temperature;BMP_pressure;BME280_temperature;BME280_humidity;BME280_pressure;Samples;Min_cycle;Max_cycle;Signal;HPM_P1;HPM_P2
2021/07/30 00:00:26;;;;;;;6.85;4.38;;;18.30;76.60;;;;;;5095083;28;20074;-53
2021/07/30 00:02:51;;;;;;;8.63;4.93;;;18.20;76.90;;;;;;5094844;28;20666;-53
2021/07/30 00:05:18;;;;;;;6.82;4.40;;;18.10;77.70;;;;;;5094762;28;20508;-54
2021/07/30 00:07:44;;;;;;;8.30;4.63;;;18.10;78.00;;;;;;5094526;28;20028;-54
2021/07/30 00:10:11;;;;;;;6.05;4.13;;;18.10;78.40;;;;;;5095013;28;20115;-49
2021/07/30 00:12:37;;;;;;;7.35;4.68;;;18.00;78.50;;;;;;5095022;28;20407;-54
2021/07/30 00:15:06;;;;;;;8.43;4.45;;;17.90;78.90;;;;;;5094347;28;20035;-49
2021/07/30 00:17:32;;;;;;;9.50;4.93;;;17.80;79.30;;;;;;5094533;28;20036;-48
2021/07/30 00:19:57;;;;;;;13.07;5.10;;;17.60;80.10;;;;;;5081738;28;20494;-47
2021/07/30 00:22:23;;;;;;;7.70;4.25;;;17.60;79.70;;;;;;5093017;28;20020;-49
2021/07/30 00:24:48;;;;;;;6.90;4.75;;;17.50;80.00;;;;;;5094458;28;20036;-50
2021/07/30 00:27:14;;;;;;;6.80;4.40;;;17.40;80.60;;;;;;5093863;28;20028;-55
2021/07/30 00:29:40;;;;;;;6.03;4.43;;;17.30;81.00;;;;;;5094206;28;20036;-48
2021/07/30 00:32:07;;;;;;;7.70;4.95;;;17.40;80.80;;;;;;5091299;28;20033;-52
2021/07/30 00:34:32;;;;;;;6.43;4.57;;;17.50;80.60;;;;;;5094306;28;20032;-55
2021/07/30 00:36:58;;;;;;;9.80;5.30;;;17.40;80.80;;;;;;5095310;28;20050;-47
2021/07/30 00:39:23;;;;;;;5.45;4.45;;;17.40;81.20;;;;;;5093924;28;20504;-51
2021/07/30 00:41:49;;;;;;;10.00;4.97;;;17.30;81.60;;;;;;5093826;28;20120;-48
2021/07/30 00:44:15;;;;;;;6.07;4.53;;;17.30;81.70;;;;;;5094417;28;20047;-52
2021/07/30 00:46:40;;;;;;;7.82;4.18;;;17.40;81.30;;;;;;5093787;28;20040;-47
2021/07/30 00:49:06;;;;;;;6.95;4.72;;;17.50;81.20;;;;;;5094283;28;20088;-49
2021/07/30 00:51:32;;;;;;;6.85;4.72;;;17.60;81.50;;;;;;5075610;28;20036;-55
2021/07/30 00:53:58;;;;;;;6.55;4.78;;;17.60;81.40;;;;;;5093915;28;20544;-48
2021/07/30 00:56:23;;;;;;;7.55;5.18;;;17.70;80.80;;;;;;5093123;28;20421;-47
2021/07/30 00:58:51;;;;;;;7.55;5.15;;;17.80;81.20;;;;;;5093845;28;20028;-53
2021/07/30 01:01:17;;;;;;;5.70;4.72;;;17.70;81.10;;;;;;5093275;28;20039;-51
2021/07/30 01:03:43;;;;;;;9.27;4.85;;;17.70;81.60;;;;;;5094488;28;20028;-49
2021/07/30 01:06:09;;;;;;;6.32;4.63;;;17.70;81.30;;;;;;5094078;28;20032;-47
2021/07/30 01:08:36;;;;;;;8.82;4.22;;;17.70;81.00;;;;;;5097357;28;20073;-47
2021/07/30 01:11:02;;;;;;;7.50;4.82;;;17.70;80.20;;;;;;5103402;28;20550;-49
2021/07/30 01:13:28;;;;;;;6.65;4.57;;;17.70;80.00;;;;;;5093823;28;20221;-50
2021/07/30 01:15:53;;;;;;;6.82;4.47;;;17.50;80.20;;;;;;5092814;28;20031;-48
2021/07/30 01:18:19;;;;;;;8.68;5.13;;;17.50;80.60;;;;;;5079194;28;20067;-49
2021/07/30 01:20:51;;;;;;;8.18;5.03;;;17.40;81.50;;;;;;5092204;28;20032;-48
2021/07/30 01:23:17;;;;;;;6.80;4.95;;;17.30;82.30;;;;;;5093396;28;20024;-51
2021/07/30 01:25:42;;;;;;;10.25;5.15;;;17.20;82.90;;;;;;5093393;28;20115;-51
2021/07/30 01:28:08;;;;;;;9.15;5.22;;;17.10;83.10;;;;;;5092793;28;20158;-52
2021/07/30 01:30:34;;;;;;;8.85;4.93;;;17.20;83.50;;;;;;5092729;28;20030;-51
2021/07/30 01:33:00;;;;;;;7.60;4.47;;;17.10;83.50;;;;;;5089163;28;20458;-50
2021/07/30 01:35:25;;;;;;;6.32;4.65;;;17.10;83.20;;;;;;5092282;28;20123;-49
2021/07/30 01:37:51;;;;;;;8.80;4.60;;;17.00;83.90;;;;;;5092602;28;20107;-51
2021/07/30 01:40:21;;;;;;;8.68;5.00;;;17.00;84.10;;;;;;5092629;28;20078;-50
2021/07/30 01:42:48;;;;;;;7.80;4.90;;;17.10;83.60;;;;;;5091891;28;20028;-52
2021/07/30 01:45:13;;;;;;;7.68;5.13;;;17.00;83.40;;;;;;5092074;28;20135;-52
2021/07/30 01:47:39;;;;;;;8.20;5.15;;;16.90;83.50;;;;;;5074050;28;20555;-51
2021/07/30 01:50:05;;;;;;;8.00;4.95;;;16.90;83.50;;;;;;5092274;28;20034;-54
2021/07/30 01:58:36;;;;;;;6.65;4.93;;;16.60;84.90;;;;;;5082329;28;20543;-52
2021/07/30 02:01:05;;;;;;;9.02;5.20;;;16.50;85.40;;;;;;5093933;28;20031;-52
2021/07/30 02:03:31;;;;;;;12.30;5.20;;;16.30;85.70;;;;;;5103464;28;20040;-53
2021/07/30 02:05:56;;;;;;;6.72;5.07;;;16.30;86.00;;;;;;5094754;28;20035;-47
2021/07/30 02:08:22;;;;;;;9.27;5.38;;;16.10;86.30;;;;;;5073560;28;20058;-49
2021/07/30 02:10:48;;;;;;;6.28;4.95;;;16.10;86.70;;;;;;5092249;28;20032;-47
2021/07/30 02:15:57;;;;;;;6.63;5.10;;;16.40;86.10;;;;;;5099881;28;20056;-49
2021/07/30 02:18:23;;;;;;;9.00;5.43;;;16.40;86.20;;;;;;5080002;28;20048;-54
2021/07/30 02:20:48;;;;;;;8.93;4.82;;;16.50;85.90;;;;;;5078188;28;20053;-52
2021/07/30 02:23:14;;;;;;;6.72;5.03;;;16.50;86.00;;;;;;5091277;28;20047;-49
2021/07/30 02:25:40;;;;;;;6.68;5.35;;;16.50;85.70;;;;;;5091758;28;20020;-52
2021/07/30 02:28:05;;;;;;;6.43;4.68;;;16.60;85.60;;;;;;5074062;28;20173;-53
2021/07/30 02:30:31;;;;;;;10.60;5.55;;;16.60;85.30;;;;;;5091742;28;20502;-48
2021/07/30 02:32:56;;;;;;;9.93;5.10;;;16.60;85.10;;;;;;5088804;28;20035;-50
2021/07/30 02:35:22;;;;;;;8.63;5.45;;;16.70;85.30;;;;;;5091730;28;20043;-47
2021/07/30 02:37:47;;;;;;;7.30;5.32;;;16.60;85.40;;;;;;5091340;28;20035;-53
2021/07/30 02:40:13;;;;;;;8.60;5.68;;;16.60;85.30;;;;;;5091870;28;20020;-48
2021/07/30 02:42:39;;;;;;;6.45;4.93;;;16.50;85.50;;;;;;5091596;28;20479;-47
2021/07/30 02:45:05;;;;;;;9.30;5.40;;;16.50;85.70;;;;;;5090661;28;20081;-48
2021/07/30 02:47:31;;;;;;;10.20;6.43;;;16.50;85.40;;;;;;5091352;28;20056;-47
2021/07/30 02:49:56;;;;;;;5.82;4.95;;;16.60;85.30;;;;;;5091797;28;20056;-49
2021/07/30 02:52:22;;;;;;;8.48;5.15;;;16.60;85.20;;;;;;5091699;28;20544;-53
2021/07/30 02:54:47;;;;;;;8.68;5.00;;;16.70;85.10;;;;;;5091635;28;20016;-49
2021/07/30 02:57:13;;;;;;;7.50;5.47;;;16.70;85.10;;;;;;5092066;28;20024;-50
2021/07/30 02:59:38;;;;;;;8.43;5.10;;;16.70;85.10;;;;;;5073989;28;20028;-51
2021/07/30 03:02:04;;;;;;;9.13;5.32;;;16.70;85.30;;;;;;5073357;28;20536;-53
2021/07/30 03:04:30;;;;;;;5.55;4.60;;;16.70;85.60;;;;;;5091690;28;20476;-48
2021/07/30 03:06:55;;;;;;;9.10;5.55;;;16.70;85.40;;;;;;5097352;28;20088;-49
2021/07/30 03:09:21;;;;;;;10.95;5.47;;;16.70;85.50;;;;;;5099510;28;20103;-50
2021/07/30 03:11:47;;;;;;;8.43;5.50;;;16.50;85.80;;;;;;5073313;28;20029;-51
2021/07/30 03:14:13;;;;;;;7.78;5.53;;;16.50;85.80;;;;;;5091407;28;20066;-49
2021/07/30 03:16:38;;;;;;;10.57;6.05;;;16.40;86.00;;;;;;5090606;28;20059;-52
2021/07/30 03:19:04;;;;;;;9.77;5.93;;;16.40;86.10;;;;;;5085908;28;20456;-49
2021/07/30 03:21:29;;;;;;;9.02;5.78;;;16.50;85.90;;;;;;5085325;28;20165;-48
2021/07/30 03:23:55;;;;;;;8.80;5.35;;;16.40;86.30;;;;;;5091458;28;20040;-51
2021/07/30 03:26:21;;;;;;;8.25;5.68;;;16.40;86.30;;;;;;5091187;28;20407;-52
2021/07/30 03:28:49;;;;;;;9.32;5.95;;;16.50;86.10;;;;;;5073025;28;20032;-50
2021/07/30 03:31:15;;;;;;;8.40;6.00;;;16.50;86.00;;;;;;5090968;28;20399;-48
2021/07/30 03:33:41;;;;;;;9.38;5.75;;;16.60;85.90;;;;;;5092427;28;20027;-52
2021/07/30 03:36:07;;;;;;;9.52;5.60;;;16.50;85.90;;;;;;5091857;28;20052;-49
2021/07/30 03:38:33;;;;;;;10.45;6.07;;;16.40;85.70;;;;;;5091576;28;20032;-47
2021/07/30 03:41:02;;;;;;;8.00;5.40;;;16.40;85.50;;;;;;5091758;28;20036;-49
2021/07/30 03:43:28;;;;;;;7.85;5.70;;;16.40;85.90;;;;;;5090325;28;20043;-48
2021/07/30 03:45:53;;;;;;;6.03;5.43;;;16.40;86.10;;;;;;5090551;28;20492;-48
2021/07/30 03:48:19;;;;;;;7.57;6.03;;;16.40;85.70;;;;;;5091399;28;20067;-48
2021/07/30 03:50:44;;;;;;;7.28;5.28;;;16.40;85.90;;;;;;5090874;28;20028;-48
2021/07/30 03:53:10;;;;;;;7.63;5.60;;;16.50;85.60;;;;;;5091072;28;20036;-51
2021/07/30 03:55:35;;;;;;;8.60;7.18;;;16.40;85.80;;;;;;5092157;28;20046;-51
2021/07/30 03:58:01;;;;;;;10.82;6.40;;;16.50;85.70;;;;;;5094755;28;20024;-48
2021/07/30 04:00:27;;;;;;;9.25;6.25;;;16.40;85.90;;;;;;5095197;28;20056;-51
2021/07/30 04:02:52;;;;;;;6.88;5.20;;;16.30;86.00;;;;;;5090871;28;20037;-50
2021/07/30 04:05:18;;;;;;;9.18;5.60;;;16.40;86.00;;;;;;5077090;28;20031;-53
2021/07/30 04:07:43;;;;;;;7.03;5.00;;;16.30;86.40;;;;;;5094825;28;20024;-49
2021/07/30 04:10:09;;;;;;;9.88;5.60;;;16.30;86.10;;;;;;5094541;28;20043;-48
2021/07/30 04:12:35;;;;;;;7.85;5.35;;;16.40;86.00;;;;;;5094770;28;20031;-49
2021/07/30 04:15:01;;;;;;;6.55;5.03;;;16.40;85.90;;;;;;5095586;28;20352;-50
2021/07/30 04:17:26;;;;;;;8.05;5.80;;;16.50;85.90;;;;;;5096722;28;20029;-50
2021/07/30 04:19:52;;;;;;;7.30;5.57;;;16.40;86.30;;;;;;5048528;28;20055;-51
2021/07/30 04:22:17;;;;;;;12.70;5.55;;;16.40;86.20;;;;;;5094943;28;20599;-49
2021/07/30 04:24:43;;;;;;;8.27;4.95;;;16.50;86.00;;;;;;5094342;28;20040;-52
2021/07/30 04:27:08;;;;;;;7.38;5.15;;;16.60;85.90;;;;;;5108196;28;20064;-56
2021/07/30 04:29:38;;;;;;;7.00;4.80;;;16.60;85.90;;;;;;5094630;28;20081;-48
2021/07/30 04:32:06;;;;;;;8.93;5.07;;;16.70;85.70;;;;;;5092978;28;20032;-51
2021/07/30 04:34:31;;;;;;;12.18;5.85;;;16.80;85.70;;;;;;5094402;28;20071;-49
2021/07/30 04:36:57;;;;;;;6.30;5.18;;;16.80;85.80;;;;;;5094693;28;20559;-50
2021/07/30 04:39:23;;;;;;;5.68;4.95;;;16.90;86.50;;;;;;5093524;28;20023;-52
2021/07/30 04:41:48;;;;;;;9.20;5.63;;;17.00;85.20;;;;;;5093752;28;20517;-48
2021/07/30 04:44:14;;;;;;;9.27;5.18;;;17.00;84.70;;;;;;5093719;28;20462;-47
2021/07/30 04:46:39;;;;;;;7.78;5.82;;;17.10;84.60;;;;;;5093644;28;20487;-49
2021/07/30 04:49:05;;;;;;;6.47;5.40;;;17.10;84.40;;;;;;5093494;28;20031;-52
2021/07/30 04:51:30;;;;;;;10.02;6.43;;;16.90;85.20;;;;;;5094116;28;20029;-53
2021/07/30 04:53:56;;;;;;;9.93;5.78;;;16.90;85.20;;;;;;5093785;28;20043;-51
2021/07/30 04:56:21;;;;;;;7.88;5.50;;;17.00;84.90;;;;;;5093622;28;20023;-49
2021/07/30 04:58:47;;;;;;;8.07;5.43;;;17.00;85.00;;;;;;5094035;28;20059;-52
2021/07/30 05:01:13;;;;;;;8.27;5.72;;;17.10;85.00;;;;;;5093691;28;20035;-53
2021/07/30 05:03:39;;;;;;;6.25;5.07;;;17.20;84.70;;;;;;5094045;28;20121;-49
2021/07/30 05:06:18;;;;;;;7.70;5.75;;;17.20;84.60;;;;;;5093295;28;20028;-49
2021/07/30 05:08:45;;;;;;;8.68;4.95;;;17.30;84.70;;;;;;5079493;28;20032;-50
2021/07/30 05:11:11;;;;;;;8.63;5.65;;;17.30;84.60;;;;;;5093242;28;20550;-52
2021/07/30 05:13:39;;;;;;;11.45;6.60;;;17.40;84.50;;;;;;5094116;28;20111;-47
2021/07/30 05:16:09;;;;;;;9.77;5.93;;;17.50;84.30;;;;;;5093397;28;20120;-49
2021/07/30 05:18:34;;;;;;;8.05;5.63;;;17.50;84.20;;;;;;5092612;28;20445;-51
2021/07/30 05:21:12;;;;;;;12.60;5.38;;;17.50;83.80;;;;;;5083293;28;20028;-53
2021/07/30 05:23:38;;;;;;;13.70;6.95;;;17.40;84.20;;;;;;5093245;28;20488;-56
2021/07/30 05:26:04;;;;;;;24.98;7.30;;;17.40;84.20;;;;;;5093319;28;20044;-56
2021/07/30 05:28:30;;;;;;;19.83;8.13;;;17.50;84.00;;;;;;5093079;28;20040;-57
2021/07/30 05:30:57;;;;;;;31.30;7.60;;;17.50;84.20;;;;;;5087216;28;20032;-57
2021/07/30 05:33:24;;;;;;;20.23;6.85;;;17.50;84.20;;;;;;5075416;28;20047;-55
2021/07/30 05:35:50;;;;;;;11.45;6.20;;;17.50;84.10;;;;;;5092664;28;20077;-56
2021/07/30 05:38:15;;;;;;;12.57;5.85;;;17.50;84.40;;;;;;5092822;28;20025;-56
2021/07/30 05:40:45;;;;;;;13.70;6.10;;;17.60;84.20;;;;;;5092855;28;20525;-58
2021/07/30 05:43:11;;;;;;;17.70;6.85;;;17.40;84.70;;;;;;5081955;28;20036;-56
2021/07/30 05:45:36;;;;;;;15.82;7.13;;;17.40;85.30;;;;;;5088281;28;20043;-52
2021/07/30 05:48:02;;;;;;;10.60;6.85;;;17.50;85.30;;;;;;5077615;28;20115;-52
2021/07/30 05:50:28;;;;;;;12.65;6.55;;;17.50;85.50;;;;;;5087611;28;20032;-58
2021/07/30 05:52:53;;;;;;;12.52;6.40;;;17.50;85.70;;;;;;5109209;28;20035;-53
2021/07/30 05:55:19;;;;;;;11.70;6.03;;;17.60;85.90;;;;;;5092735;28;20043;-56
2021/07/30 05:57:45;;;;;;;10.23;6.13;;;17.50;86.30;;;;;;5092489;28;20121;-55
2021/07/30 06:00:11;;;;;;;9.13;6.10;;;17.60;86.20;;;;;;5070592;28;20039;-54
2021/07/30 06:02:37;;;;;;;7.15;5.88;;;17.40;86.70;;;;;;5084605;28;20536;-54
2021/07/30 06:05:03;;;;;;;8.07;6.25;;;17.50;86.80;;;;;;5092415;28;20027;-57
2021/07/30 06:07:28;;;;;;;7.50;5.80;;;17.50;87.00;;;;;;5102862;28;20031;-56
2021/07/30 06:09:54;;;;;;;7.85;5.80;;;17.50;86.80;;;;;;5095747;28;20420;-55
2021/07/30 06:12:20;;;;;;;8.55;5.85;;;17.50;87.00;;;;;;5092633;28;20027;-55
2021/07/30 06:14:46;;;;;;;10.57;6.00;;;17.70;86.60;;;;;;5092271;28;20061;-58
2021/07/30 06:17:12;;;;;;;9.98;6.32;;;18.00;86.10;;;;;;5092360;28;20425;-57
2021/07/30 06:19:38;;;;;;;10.32;5.50;;;17.90;86.60;;;;;;5082388;28;20484;-56
2021/07/30 06:22:03;;;;;;;9.18;5.90;;;18.00;86.20;;;;;;5111396;28;20126;-58
2021/07/30 06:24:29;;;;;;;7.55;5.55;;;18.00;86.30;;;;;;5108379;28;20043;-57
2021/07/30 06:26:54;;;;;;;9.65;5.95;;;18.20;86.40;;;;;;5091124;28;20056;-58
2021/07/30 06:29:20;;;;;;;11.50;5.63;;;18.30;86.20;;;;;;5091398;28;20036;-57
2021/07/30 06:31:46;;;;;;;5.70;5.03;;;18.40;86.10;;;;;;5105972;28;20035;-56
2021/07/30 06:34:11;;;;;;;6.07;5.13;;;18.30;85.80;;;;;;5110401;28;20059;-57
2021/07/30 06:36:37;;;;;;;8.68;4.90;;;18.40;85.60;;;;;;5094100;28;20040;-58
2021/07/30 06:39:03;;;;;;;7.10;4.60;;;18.50;83.60;;;;;;5091033;28;20024;-57
2021/07/30 06:41:29;;;;;;;10.05;4.68;;;18.40;84.10;;;;;;5091170;28;20032;-58
2021/07/30 06:43:55;;;;;;;6.20;4.28;;;18.50;84.60;;;;;;5091428;28;20028;-56
2021/07/30 06:46:20;;;;;;;7.10;4.80;;;18.70;84.10;;;;;;5091236;28;20028;-55
2021/07/30 06:48:46;;;;;;;8.40;4.85;;;18.80;83.70;;;;;;5090997;28;20020;-53
2021/07/30 06:51:14;;;;;;;8.25;5.07;;;18.90;83.60;;;;;;5091247;28;20036;-56
2021/07/30 06:53:40;;;;;;;7.45;4.72;;;18.90;83.70;;;;;;5091431;28;20035;-58
2021/07/30 06:56:13;;;;;;;4.90;4.40;;;19.10;83.50;;;;;;5082557;28;20021;-57
2021/07/30 06:58:40;;;;;;;6.27;4.40;;;19.10;82.90;;;;;;5086740;28;20024;-55
2021/07/30 07:01:06;;;;;;;7.80;4.38;;;19.10;82.20;;;;;;5079663;28;20099;-58
2021/07/30 07:03:32;;;;;;;6.55;4.60;;;19.40;82.10;;;;;;5099240;28;20563;-55
2021/07/30 07:05:57;;;;;;;8.38;4.65;;;19.30;81.60;;;;;;5105384;28;20103;-55
2021/07/30 07:08:23;;;;;;;8.80;4.60;;;19.60;80.40;;;;;;5107134;28;20111;-55
2021/07/30 07:10:49;;;;;;;11.30;4.72;;;19.60;77.80;;;;;;5097528;28;20357;-59
2021/07/30 07:13:20;;;;;;;7.75;4.72;;;19.60;78.00;;;;;;5083517;28;20476;-57
2021/07/30 07:15:46;;;;;;;10.02;4.78;;;19.60;77.80;;;;;;5078571;28;20055;-56
2021/07/30 07:18:12;;;;;;;9.38;4.68;;;19.60;78.00;;;;;;5092115;28;20107;-57
2021/07/30 07:20:39;;;;;;;10.02;5.65;;;19.70;78.00;;;;;;5088994;28;20024;-55
2021/07/30 07:23:05;;;;;;;8.30;5.00;;;19.70;77.70;;;;;;5092536;28;20038;-57
2021/07/30 07:25:31;;;;;;;9.70;4.68;;;19.70;77.50;;;;;;5091836;28;20074;-55
2021/07/30 07:27:56;;;;;;;8.25;4.60;;;19.90;77.20;;;;;;5102272;28;20399;-58
2021/07/30 07:30:22;;;;;;;7.78;4.32;;;20.00;76.70;;;;;;5111024;28;20039;-58
2021/07/30 07:32:48;;;;;;;11.93;6.00;;;20.00;75.90;;;;;;5109019;28;20035;-57
2021/07/30 07:35:14;;;;;;;9.45;4.50;;;20.10;76.40;;;;;;5115873;28;20045;-58
2021/07/30 07:37:40;;;;;;;7.68;5.13;;;20.30;76.10;;;;;;5095852;28;20392;-56
2021/07/30 07:40:07;;;;;;;8.70;4.90;;;20.20;75.10;;;;;;5111770;28;20035;-56
2021/07/30 07:42:33;;;;;;;8.15;4.90;;;20.20;74.80;;;;;;5114807;28;20671;-58
2021/07/30 07:44:59;;;;;;;10.05;5.40;;;20.20;75.40;;;;;;5114615;28;20028;-59
2021/07/30 07:47:25;;;;;;;7.65;4.35;;;20.40;75.30;;;;;;5112842;28;20096;-54
2021/07/30 07:49:50;;;;;;;7.40;4.47;;;20.60;74.80;;;;;;5115268;28;20024;-53
2021/07/30 07:52:16;;;;;;;7.43;4.93;;;20.60;73.80;;;;;;5107972;28;20476;-58
2021/07/30 07:54:42;;;;;;;7.93;4.60;;;20.40;73.90;;;;;;5096142;28;20024;-54
2021/07/30 07:57:07;;;;;;;8.80;4.18;;;20.60;73.50;;;;;;5095375;28;20365;-54
2021/07/30 07:59:36;;;;;;;7.88;4.30;;;20.60;74.60;;;;;;5095658;28;20036;-56
2021/07/30 08:02:06;;;;;;;7.68;4.05;;;20.80;73.80;;;;;;5099466;28;20032;-58
2021/07/30 08:04:32;;;;;;;6.75;3.97;;;20.90;74.00;;;;;;5113797;28;20041;-57
2021/07/30 08:06:59;;;;;;;13.70;4.72;;;21.10;73.60;;;;;;5113193;28;20435;-56
2021/07/30 08:09:25;;;;;;;6.80;3.72;;;21.20;73.10;;;;;;5114003;28;20047;-58
2021/07/30 08:11:50;;;;;;;7.65;4.40;;;21.20;72.40;;;;;;5115868;28;20032;-57
2021/07/30 08:14:16;;;;;;;7.55;4.03;;;21.00;72.40;;;;;;5116855;28;20034;-57
2021/07/30 08:16:42;;;;;;;5.72;3.78;;;20.80;72.90;;;;;;5114856;28;20029;-56
2021/07/30 08:19:07;;;;;;;8.82;3.90;;;20.90;73.10;;;;;;5110120;28;20028;-57
2021/07/30 08:21:33;;;;;;;5.30;3.50;;;20.90;73.10;;;;;;5115924;28;20040;-55
2021/07/30 08:23:59;;;;;;;6.65;3.85;;;21.00;72.60;;;;;;5097017;28;20040;-56
2021/07/30 08:26:24;;;;;;;10.45;3.92;;;21.10;73.40;;;;;;5091600;28;20399;-52
2021/07/30 08:28:50;;;;;;;9.10;3.47;;;21.20;73.20;;;;;;5076835;28;20078;-57
2021/07/30 08:31:26;;;;;;;7.50;4.22;;;21.10;72.60;;;;;;5086159;28;20032;-53
2021/07/30 08:33:52;;;;;;;7.03;3.83;;;21.30;72.80;;;;;;5113914;28;20061;-59
2021/07/30 08:36:17;;;;;;;7.78;3.97;;;21.40;73.00;;;;;;5114825;28;20016;-54
2021/07/30 08:38:43;;;;;;;6.15;3.85;;;21.70;72.60;;;;;;5094838;28;20395;-55
2021/07/30 08:41:08;;;;;;;8.43;3.83;;;21.80;72.00;;;;;;5115183;28;20043;-56
2021/07/30 08:43:35;;;;;;;8.07;3.72;;;21.90;71.50;;;;;;5111693;28;20031;-55
2021/07/30 08:46:05;;;;;;;8.82;3.95;;;22.10;70.90;;;;;;5104569;28;20028;-51
2021/07/30 08:48:37;;;;;;;6.63;4.13;;;21.80;69.90;;;;;;5076557;28;20375;-56
2021/07/30 08:51:14;;;;;;;7.50;3.97;;;22.00;68.90;;;;;;5094807;28;20100;-56
2021/07/30 08:53:40;;;;;;;6.82;4.10;;;22.00;68.90;;;;;;5093782;28;20028;-57
2021/07/30 08:56:06;;;;;;;6.25;4.03;;;21.80;68.30;;;;;;5106053;28;20035;-59
2021/07/30 08:58:33;;;;;;;6.80;3.67;;;21.80;68.70;;;;;;5094210;28;20043;-62
2021/07/30 09:00:59;;;;;;;9.35;4.25;;;22.00;68.50;;;;;;5088110;28;20032;-58
2021/07/30 09:03:42;;;;;;;7.50;3.90;;;22.00;66.70;;;;;;5111853;28;20024;-59
2021/07/30 09:06:24;;;;;;;7.53;3.95;;;22.00;67.00;;;;;;5094125;28;20598;-57
2021/07/30 09:09:02;;;;;;;10.93;4.85;;;21.90;67.50;;;;;;5086513;28;20036;-59
2021/07/30 09:11:38;;;;;;;14.65;4.93;;;22.00;67.60;;;;;;5093647;28;20070;-57
2021/07/30 09:14:06;;;;;;;8.23;3.67;;;22.00;67.20;;;;;;5086113;28;20127;-58
2021/07/30 09:16:52;;;;;;;6.65;3.80;;;22.00;66.20;;;;;;5093866;28;20173;-56
2021/07/30 09:19:19;;;;;;;6.40;4.03;;;22.20;65.70;;;;;;5090856;28;20032;-58
2021/07/30 09:21:46;;;;;;;8.63;4.15;;;22.30;65.20;;;;;;5088023;28;20024;-56
2021/07/30 09:24:13;;;;;;;7.47;3.75;;;22.20;65.30;;;;;;5091130;28;20036;-56
2021/07/30 09:26:55;;;;;;;7.32;3.25;;;22.20;66.40;;;;;;5092261;28;20044;-58
2021/07/30 09:29:29;;;;;;;6.80;3.92;;;22.20;66.10;;;;;;5085605;28;20107;-58
2021/07/30 09:31:56;;;;;;;5.33;3.37;;;22.00;66.20;;;;;;5083530;28;20032;-58
2021/07/30 09:34:25;;;;;;;6.40;3.95;;;21.90;67.60;;;;;;5086412;28;20027;-57
2021/07/30 09:36:54;;;;;;;8.38;4.60;;;22.10;67.10;;;;;;5092122;28;20541;-56
2021/07/30 09:39:26;;;;;;;6.63;3.88;;;22.20;66.90;;;;;;5092694;28;20133;-58
2021/07/30 09:42:00;;;;;;;8.73;3.65;;;22.40;65.40;;;;;;5092669;28;20110;-58
2021/07/30 09:44:25;;;;;;;5.90;3.67;;;22.50;65.60;;;;;;5070962;28;20043;-58
2021/07/30 09:47:04;;;;;;;10.65;4.00;;;22.60;64.70;;;;;;5092896;28;20036;-57
2021/07/30 09:49:46;;;;;;;10.38;4.00;;;22.50;64.40;;;;;;5093150;28;20032;-57
2021/07/30 09:52:26;;;;;;;22.00;5.60;;;22.50;63.50;;;;;;5093139;28;20044;-57
2021/07/30 09:54:56;;;;;;;7.53;3.97;;;22.50;64.40;;;;;;5082735;28;20028;-56
2021/07/30 09:57:30;;;;;;;6.63;3.55;;;22.70;65.20;;;;;;5082822;28;20028;-56
2021/07/30 10:00:00;;;;;;;5.72;3.95;;;22.90;65.50;;;;;;5093154;28;20391;-57
2021/07/30 10:02:28;;;;;;;6.78;3.53;;;23.10;65.90;;;;;;5093079;28;20032;-58
2021/07/30 10:04:54;;;;;;;13.38;4.22;;;23.10;64.50;;;;;;5092619;28;20503;-57
2021/07/30 10:07:25;;;;;;;16.65;5.72;;;23.20;64.00;;;;;;5088100;28;20028;-58
2021/07/30 10:10:04;;;;;;;23.58;5.72;;;23.30;64.00;;;;;;5092540;28;20020;-58
2021/07/30 10:12:31;;;;;;;12.88;4.18;;;23.40;63.90;;;;;;5092666;28;20040;-58
2021/07/30 10:15:01;;;;;;;8.57;3.95;;;23.20;64.40;;;;;;5092489;28;20043;-58
2021/07/30 10:17:37;;;;;;;8.43;3.85;;;23.10;64.10;;;;;;5092065;28;20071;-53
2021/07/30 10:20:05;;;;;;;9.40;3.70;;;23.20;64.70;;;;;;5080726;28;20040;-57
2021/07/30 10:23:00;;;;;;;9.93;4.07;;;23.20;64.80;;;;;;5091681;28;20039;-57
2021/07/30 10:25:34;;;;;;;5.65;3.92;;;23.40;65.30;;;;;;5091768;28;20031;-56
2021/07/30 10:28:04;;;;;;;10.05;3.97;;;23.30;66.00;;;;;;5092260;28;20138;-58
2021/07/30 10:30:49;;;;;;;7.40;4.00;;;23.60;64.80;;;;;;5081565;28;20479;-58
2021/07/30 10:33:15;;;;;;;8.93;3.70;;;23.50;65.00;;;;;;5105234;28;20514;-57
2021/07/30 10:35:43;;;;;;;7.93;3.65;;;23.40;64.70;;;;;;5093084;28;20123;-57
2021/07/30 10:38:27;;;;;;;9.32;4.22;;;23.50;64.40;;;;;;5092794;28;20695;-54
2021/07/30 10:40:58;;;;;;;4.88;3.70;;;23.70;63.70;;;;;;5085482;28;20042;-58
2021/07/30 10:43:27;;;;;;;4.68;3.38;;;23.90;63.50;;;;;;5095432;28;20115;-56
2021/07/30 10:46:07;;;;;;;9.00;3.72;;;24.10;63.90;;;;;;5094647;28;20032;-57
2021/07/30 10:48:38;;;;;;;10.15;4.65;;;24.30;63.30;;;;;;5071329;28;20032;-57
2021/07/30 10:51:23;;;;;;;5.68;3.75;;;24.00;62.90;;;;;;5092963;28;20096;-56
2021/07/30 10:53:53;;;;;;;9.10;3.85;;;23.80;63.50;;;;;;5092513;28;20020;-56
2021/07/30 10:56:21;;;;;;;5.95;3.55;;;23.70;64.10;;;;;;5084327;28;20025;-58
2021/07/30 10:58:52;;;;;;;8.38;3.80;;;23.80;64.80;;;;;;5089266;28;20016;-56
2021/07/30 11:01:37;;;;;;;6.95;3.90;;;23.70;64.00;;;;;;5090534;28;20139;-58
2021/07/30 11:04:03;;;;;;;5.78;3.55;;;23.70;64.60;;;;;;5075214;28;20035;-58
2021/07/30 11:06:52;;;;;;;6.30;3.50;;;23.70;65.10;;;;;;5086554;28;20438;-59
2021/07/30 11:09:18;;;;;;;6.15;3.92;;;24.00;64.40;;;;;;5096170;28;20043;-58
2021/07/30 11:11:54;;;;;;;7.75;4.25;;;23.90;64.70;;;;;;5098423;28;20032;-55
2021/07/30 11:14:24;;;;;;;7.70;4.18;;;23.90;64.20;;;;;;5108184;28;20036;-56
2021/07/30 11:16:53;;;;;;;6.13;3.90;;;24.00;64.30;;;;;;5111202;28;20111;-59
2021/07/30 11:19:23;;;;;;;7.28;4.05;;;24.10;63.50;;;;;;5095296;28;20044;-56
2021/07/30 11:21:50;;;;;;;6.90;4.07;;;24.00;63.80;;;;;;5095841;28;20047;-57
2021/07/30 11:24:16;;;;;;;6.75;4.57;;;24.20;63.40;;;;;;5109394;28;20031;-55
2021/07/30 11:26:42;;;;;;;6.38;3.95;;;24.00;64.20;;;;;;5111289;28;20494;-58
2021/07/30 11:29:12;;;;;;;7.80;3.50;;;24.30;64.10;;;;;;5081956;28;20029;-59
2021/07/30 11:32:03;;;;;;;5.38;3.42;;;24.30;64.00;;;;;;5087998;28;20039;-58
2021/07/30 11:34:36;;;;;;;4.53;3.38;;;24.40;62.70;;;;;;5100623;28;20097;-55
2021/07/30 11:37:04;;;;;;;5.53;3.83;;;24.40;63.60;;;;;;5106145;28;20084;-56
2021/07/30 11:39:43;;;;;;;5.65;3.53;;;24.70;63.10;;;;;;5092493;28;20039;-53
2021/07/30 11:42:09;;;;;;;4.93;3.60;;;24.70;62.60;;;;;;5096587;28;20391;-53
2021/07/30 11:44:46;;;;;;;5.57;3.50;;;24.50;63.00;;;;;;5108469;28;20020;-50
2021/07/30 11:47:12;;;;;;;5.03;3.33;;;24.60;62.30;;;;;;5108963;28;20085;-55
2021/07/30 11:49:39;;;;;;;5.70;3.50;;;24.80;62.60;;;;;;5111059;28;20039;-53
2021/07/30 11:52:07;;;;;;;4.72;3.63;;;24.70;62.60;;;;;;5096779;28;20028;-58
2021/07/30 11:54:34;;;;;;;5.65;3.80;;;25.00;62.30;;;;;;5091722;28;20665;-57
2021/07/30 11:57:00;;;;;;;6.22;3.83;;;25.20;62.00;;;;;;5090648;28;20040;-55
2021/07/30 11:59:26;;;;;;;5.40;3.60;;;24.90;61.50;;;;;;5099582;28;20044;-54
2021/07/30 12:02:07;;;;;;;5.00;3.88;;;25.00;61.80;;;;;;5098451;28;20036;-55
2021/07/30 12:04:33;;;;;;;5.13;3.88;;;24.90;62.70;;;;;;5077064;28;20028;-58
2021/07/30 12:07:25;;;;;;;7.57;3.83;;;24.90;62.10;;;;;;5091094;28;20422;-55
2021/07/30 12:09:55;;;;;;;4.45;3.60;;;24.90;62.80;;;;;;5076447;28;20028;-56
2021/07/30 12:12:23;;;;;;;6.72;3.55;;;25.00;61.10;;;;;;5090413;28;20383;-56
2021/07/30 12:14:50;;;;;;;5.97;3.90;;;25.00;61.70;;;;;;5091016;28;20032;-57
2021/07/30 12:17:17;;;;;;;7.45;3.70;;;25.00;62.20;;;;;;5107003;28;20048;-52
2021/07/30 12:19:43;;;;;;;6.40;3.97;;;25.20;62.00;;;;;;5089324;28;20040;-57
2021/07/30 12:22:09;;;;;;;6.03;3.50;;;25.20;61.70;;;;;;5094392;28;20372;-57
2021/07/30 12:24:48;;;;;;;7.00;4.10;;;25.20;60.40;;;;;;5091141;28;20533;-57
2021/07/30 12:27:19;;;;;;;4.97;3.45;;;25.40;61.30;;;;;;5077783;28;20040;-54
2021/07/30 12:29:46;;;;;;;7.10;3.35;;;25.50;60.60;;;;;;5087512;28;20058;-57
2021/07/30 12:32:23;;;;;;;5.95;3.78;;;25.60;60.40;;;;;;5086727;28;20056;-55
2021/07/30 12:35:00;;;;;;;5.07;3.28;;;25.60;60.00;;;;;;5091329;28;20051;-56
2021/07/30 12:37:28;;;;;;;9.75;4.10;;;25.50;60.50;;;;;;5092654;28;20032;-53
2021/07/30 12:39:57;;;;;;;7.38;3.58;;;25.60;60.70;;;;;;5089320;28;20404;-52
2021/07/30 12:42:31;;;;;;;5.00;3.10;;;25.70;60.20;;;;;;5068794;28;20025;-53
2021/07/30 12:45:08;;;;;;;6.47;3.50;;;25.90;60.40;;;;;;5094689;28;20021;-53
2021/07/30 12:47:40;;;;;;;8.48;3.85;;;26.00;59.80;;;;;;5092106;28;20029;-57
2021/07/30 12:50:34;;;;;;;7.97;3.65;;;26.00;59.20;;;;;;5094747;28;20504;-55
2021/07/30 12:53:09;;;;;;;5.57;3.38;;;26.00;59.90;;;;;;5086549;28;20547;-54
2021/07/30 12:55:57;;;;;;;7.85;3.30;;;26.20;59.70;;;;;;5094153;28;20138;-54
2021/07/30 12:58:31;;;;;;;6.47;3.35;;;26.20;59.50;;;;;;5065262;28;20032;-52